createdAt,value
2023-01-15T00:00:52.435Z,49.63
2023-01-15T00:03:33.646Z,49.89
2023-01-15T00:15:15.214Z,50.31
2023-01-15T00:17:53.198Z,50.21
2023-01-15T00:20:25.981Z,50.60
2023-01-15T00:27:03.088Z,50.45
2023-01-15T00:30:19.698Z,49.83
2023-01-15T00:36:37.918Z,50.36
2023-01-15T00:39:11.079Z,50.00
2023-01-15T00:41:41.122Z,49.93
2023-01-15T00:44:09.386Z,50.18
2023-01-15T00:46:37.910Z,50.55
2023-01-15T00:49:06.385Z,50.45
2023-01-15T00:51:35.946Z,49.87
2023-01-15T00:54:04.812Z,49.98
2023-01-15T00:56:34.792Z,49.92
2023-01-15T00:59:03.253Z,50.21
2023-01-15T01:01:31.891Z,49.83
2023-01-15T01:04:00.061Z,49.90
2023-01-15T01:06:28.478Z,50.48
2023-01-15T01:08:57.898Z,50.21
2023-01-15T01:11:28.426Z,49.82
2023-01-15T01:13:56.635Z,50.09
2023-01-15T01:16:27.546Z,49.68
2023-01-15T01:18:55.856Z,50.02
2023-01-15T01:21:23.947Z,50.06
2023-01-15T01:23:52.070Z,50.04
2023-01-15T01:26:21.359Z,49.40
2023-01-15T01:28:53.988Z,49.48
2023-01-15T01:31:23.116Z,49.54
2023-01-15T01:33:51.589Z,49.11
2023-01-15T01:36:20.178Z,49.17
2023-01-15T01:38:50.127Z,49.12
2023-01-15T01:41:18.702Z,48.98
2023-01-15T01:43:57.737Z,48.28
2023-01-15T01:46:26.155Z,49.31
2023-01-15T01:48:56.982Z,49.26
2023-01-15T01:51:28.899Z,49.06
2023-01-15T01:53:58.065Z,48.83
2023-01-15T01:56:26.626Z,48.47
2023-01-15T01:58:59.410Z,48.12
2023-01-15T02:01:37.852Z,48.47
2023-01-15T02:04:12.430Z,48.79
2023-01-15T02:06:45.188Z,48.31
2023-01-15T02:09:34.383Z,48.07
2023-01-15T02:12:14.742Z,47.44
2023-01-15T02:15:00.553Z,47.43
2023-01-15T02:17:38.703Z,47.78
2023-01-15T02:20:33.464Z,47.66
2023-01-15T02:23:30.233Z,48.04
2023-01-15T02:26:52.303Z,46.91
2023-01-15T02:29:29.668Z,47.51
2023-01-15T02:32:00.866Z,48.18
2023-01-15T02:34:34.528Z,47.48
2023-01-15T02:37:13.829Z,47.62
2023-01-15T02:39:46.742Z,48.17
2023-01-15T02:42:18.875Z,47.68
2023-01-15T02:44:52.477Z,48.27
2023-01-15T02:47:25.633Z,47.91
2023-01-15T02:49:58.565Z,47.49
2023-01-15T02:52:31.000Z,48.02
2023-01-15T02:55:04.000Z,47.92
2023-01-15T02:57:38.689Z,47.68
2023-01-15T03:00:10.721Z,47.66
2023-01-15T03:02:44.382Z,47.84
2023-01-15T03:05:18.869Z,47.76
2023-01-15T03:07:52.619Z,47.96
2023-01-15T03:10:23.809Z,47.88
2023-01-15T03:13:04.968Z,46.72
2023-01-15T03:16:09.977Z,47.08
2023-01-15T03:18:45.268Z,47.70
2023-01-15T03:21:18.635Z,47.93
2023-01-15T03:23:52.177Z,47.69
2023-01-15T03:26:20.457Z,47.49
2023-01-15T03:28:54.493Z,47.32
2023-01-15T03:31:24.039Z,47.67
2023-01-15T03:33:52.227Z,47.33
2023-01-15T03:36:22.411Z,47.67
2023-01-15T03:38:52.605Z,47.46
2023-01-15T03:42:04.219Z,47.27
2023-01-15T03:44:40.982Z,47.71
2023-01-15T03:47:25.165Z,46.82
2023-01-15T03:50:04.801Z,46.97
2023-01-15T03:52:47.580Z,47.12
2023-01-15T03:55:20.410Z,47.56
2023-01-15T03:58:01.104Z,47.28
2023-01-15T04:00:37.617Z,47.29
2023-01-15T04:03:08.451Z,47.33
2023-01-15T04:05:39.521Z,47.15
2023-01-15T04:08:09.889Z,47.51
2023-01-15T04:10:37.947Z,47.42
2023-01-15T04:13:10.423Z,47.29
2023-01-15T04:15:42.478Z,46.97
2023-01-15T04:18:10.410Z,47.53
2023-01-15T04:20:38.165Z,47.50
2023-01-15T04:23:06.013Z,47.18
2023-01-15T04:25:34.117Z,47.36
2023-01-15T04:28:05.743Z,47.47
2023-01-15T04:30:36.238Z,46.95
2023-01-15T04:33:06.763Z,47.20
2023-01-15T04:35:36.255Z,47.23
2023-01-15T04:38:05.381Z,47.12
2023-01-15T04:40:54.030Z,47.10
2023-01-15T04:43:42.242Z,46.80
2023-01-15T04:46:13.647Z,46.83
2023-01-15T04:48:44.469Z,46.86
2023-01-15T04:51:20.003Z,46.71
2023-01-15T04:53:47.940Z,47.00
2023-01-15T04:56:19.716Z,46.27
2023-01-15T04:58:47.743Z,46.78
2023-01-15T05:01:21.929Z,46.75
2023-01-15T05:03:52.413Z,46.62
2023-01-15T05:06:20.375Z,47.00
2023-01-15T05:08:48.339Z,46.72
2023-01-15T05:11:16.285Z,47.06
2023-01-15T05:13:44.343Z,46.93
2023-01-15T05:16:15.344Z,46.84
2023-01-15T05:18:44.074Z,46.84
2023-01-15T05:21:20.600Z,46.01
2023-01-15T05:23:49.034Z,46.87
2023-01-15T05:26:16.972Z,46.54
2023-01-15T05:28:59.196Z,46.09
2023-01-15T05:31:46.324Z,46.89
2023-01-15T05:34:15.897Z,46.67
2023-01-15T05:36:49.917Z,46.90
2023-01-15T05:39:18.317Z,46.87
2023-01-15T05:41:53.275Z,46.92
2023-01-15T05:44:26.329Z,46.94
2023-01-15T05:46:56.429Z,47.35
2023-01-15T05:49:32.111Z,46.24
2023-01-15T05:52:02.548Z,46.64
2023-01-15T05:54:32.626Z,46.76
2023-01-15T05:57:01.722Z,46.69
2023-01-15T05:59:30.895Z,46.67
2023-01-15T06:01:59.090Z,46.77
2023-01-15T06:04:26.924Z,46.28
2023-01-15T06:07:02.217Z,46.48
2023-01-15T06:09:36.364Z,46.55
2023-01-15T06:12:05.166Z,46.57
2023-01-15T06:14:33.601Z,46.58
2023-01-15T06:17:01.557Z,46.79
2023-01-15T06:19:29.646Z,46.94
2023-01-15T06:21:58.398Z,46.69
2023-01-15T06:24:26.231Z,46.54
2023-01-15T06:26:55.485Z,46.48
2023-01-15T06:29:23.441Z,46.38
2023-01-15T06:31:51.548Z,46.66
2023-01-15T06:34:19.710Z,46.81
2023-01-15T06:36:47.642Z,46.65
2023-01-15T06:39:17.924Z,46.25
2023-01-15T06:42:03.438Z,46.34
2023-01-15T06:44:50.137Z,46.40
2023-01-15T06:47:23.253Z,46.35
2023-01-15T06:49:54.646Z,46.12
2023-01-15T06:52:22.738Z,46.59
2023-01-15T06:54:50.583Z,46.21
2023-01-15T06:57:18.908Z,46.37
2023-01-15T06:59:48.450Z,46.34
2023-01-15T07:02:17.820Z,46.50
2023-01-15T07:04:45.693Z,46.18
2023-01-15T07:07:13.550Z,46.36
2023-01-15T07:09:41.373Z,46.48
2023-01-15T07:12:09.133Z,46.12
2023-01-15T07:14:36.961Z,46.62
2023-01-15T07:17:06.192Z,46.18
2023-01-15T07:19:34.102Z,46.31
2023-01-15T07:22:01.888Z,46.21
2023-01-15T07:24:29.754Z,46.21
2023-01-15T07:26:57.567Z,46.40
2023-01-15T07:29:45.276Z,46.35
2023-01-15T07:32:23.914Z,45.89
2023-01-15T07:34:54.840Z,45.99
2023-01-15T07:37:23.021Z,46.56
2023-01-15T07:39:50.959Z,46.55
2023-01-15T07:42:36.717Z,46.42
2023-01-15T07:45:22.618Z,46.09
2023-01-15T07:48:09.646Z,45.85
2023-01-15T07:50:37.948Z,46.36
2023-01-15T07:53:05.826Z,46.25
2023-01-15T07:55:34.510Z,46.30
2023-01-15T07:58:03.809Z,46.25
2023-01-15T08:00:31.753Z,46.18
2023-01-15T08:03:01.402Z,46.17
2023-01-15T08:05:29.402Z,46.15
2023-01-15T08:07:57.342Z,46.23
2023-01-15T08:10:26.455Z,46.24
2023-01-15T08:13:11.636Z,45.93
2023-01-15T08:15:42.837Z,45.86
2023-01-15T08:18:13.145Z,45.83
2023-01-15T08:20:41.243Z,46.24
2023-01-15T08:23:10.710Z,45.79
2023-01-15T08:25:38.590Z,45.92
2023-01-15T08:28:06.525Z,45.72
2023-01-15T08:30:35.313Z,45.63
2023-01-15T08:33:05.231Z,45.52
2023-01-15T08:35:37.098Z,45.33
2023-01-15T08:38:08.236Z,45.16
2023-01-15T08:44:30.055Z,45.25
2023-01-15T08:47:00.478Z,45.25
2023-01-15T08:49:28.435Z,45.13
2023-01-15T08:51:57.619Z,45.08
2023-01-15T08:54:25.895Z,45.14
2023-01-15T08:56:53.924Z,45.11
2023-01-15T08:59:21.749Z,45.26
2023-01-15T09:01:49.747Z,44.94
2023-01-15T09:04:19.209Z,45.23
2023-01-15T09:06:48.155Z,45.04
2023-01-15T09:09:18.850Z,45.17
2023-01-15T09:11:46.850Z,44.94
2023-01-15T09:14:58.402Z,45.05
2023-01-15T09:17:07.452Z,45.17
2023-01-15T09:19:39.728Z,45.11
2023-01-15T09:22:23.699Z,45.25
2023-01-15T09:24:56.750Z,45.29
2023-01-15T09:27:24.728Z,45.48
2023-01-15T09:29:53.014Z,45.31
2023-01-15T09:32:20.866Z,45.67
2023-01-15T09:34:48.967Z,45.56
2023-01-15T09:37:17.345Z,46.05
2023-01-15T09:39:45.337Z,46.10
2023-01-15T09:42:27.865Z,45.45
2023-01-15T09:45:15.439Z,45.71
2023-01-15T09:47:56.338Z,45.78
2023-01-15T09:50:33.058Z,45.23
2023-01-15T09:53:15.558Z,45.57
2023-01-15T09:55:47.226Z,45.42
2023-01-15T09:58:21.324Z,45.20
2023-01-15T10:00:54.931Z,45.70
2023-01-15T10:03:42.523Z,44.94
2023-01-15T10:06:21.089Z,45.24
2023-01-15T10:08:50.957Z,45.56
2023-01-15T10:11:46.647Z,44.64
2023-01-15T10:14:26.746Z,44.53
2023-01-15T10:17:08.350Z,44.83
2023-01-15T10:19:44.838Z,44.70
2023-01-15T10:22:20.977Z,44.25
2023-01-15T10:24:57.192Z,44.35
2023-01-15T10:27:37.292Z,44.60
2023-01-15T10:30:32.766Z,43.87
2023-01-15T10:33:25.648Z,43.49
2023-01-15T10:36:03.388Z,43.08
2023-01-15T10:38:40.698Z,43.94
2023-01-15T10:41:31.394Z,42.99
2023-01-15T10:44:05.407Z,43.70
2023-01-15T10:46:40.725Z,43.36
2023-01-15T10:49:19.381Z,42.36
2023-01-15T10:51:52.734Z,43.15
2023-01-15T10:54:32.930Z,42.68
2023-01-15T10:57:12.952Z,43.32
2023-01-15T10:59:50.573Z,42.78
2023-01-15T11:02:28.568Z,41.92
2023-01-15T11:04:56.851Z,43.15
2023-01-15T11:08:08.614Z,42.08
2023-01-15T11:10:39.399Z,42.95
2023-01-15T11:13:40.647Z,41.67
2023-01-15T11:16:36.126Z,41.53
2023-01-15T11:19:24.448Z,41.69
2023-01-15T11:21:54.955Z,42.30
2023-01-15T11:24:22.756Z,41.86
2023-01-15T11:26:54.763Z,41.93
2023-01-15T11:29:34.549Z,40.50
2023-01-15T11:32:02.410Z,42.05
2023-01-15T11:34:32.838Z,41.36
2023-01-15T11:37:05.485Z,40.93
2023-01-15T11:39:33.573Z,41.82
2023-01-15T11:42:20.810Z,41.79
2023-01-15T11:45:10.834Z,41.17
2023-01-15T11:47:56.546Z,41.91
2023-01-15T11:50:43.380Z,41.47
2023-01-15T11:53:19.050Z,40.90
2023-01-15T11:56:04.272Z,40.96
2023-01-15T11:58:40.432Z,40.98
2023-01-15T12:01:09.335Z,41.68
2023-01-15T12:03:37.977Z,41.58
2023-01-15T12:06:12.007Z,41.46
2023-01-15T12:08:49.090Z,40.99
2023-01-15T12:11:55.153Z,40.60
2023-01-15T12:14:40.399Z,40.67
2023-01-15T12:17:21.529Z,41.00
2023-01-15T12:20:00.975Z,41.28
2023-01-15T12:22:41.097Z,40.98
2023-01-15T12:25:21.456Z,40.37
2023-01-15T12:28:02.220Z,40.66
2023-01-15T12:30:37.779Z,40.85
2023-01-15T12:33:18.192Z,40.75
2023-01-15T12:35:56.259Z,41.38
2023-01-15T12:38:38.949Z,41.37
2023-01-15T12:41:13.970Z,41.54
2023-01-15T12:44:04.957Z,41.33
2023-01-15T12:46:40.558Z,41.17
2023-01-15T12:49:17.363Z,41.23
2023-01-15T12:51:51.098Z,41.42
2023-01-15T12:54:25.488Z,41.44
2023-01-15T12:57:00.085Z,41.08
2023-01-15T12:59:35.798Z,41.50
2023-01-15T13:02:15.642Z,41.03
2023-01-15T13:04:49.638Z,41.12
2023-01-15T13:07:30.702Z,41.01
2023-01-15T13:10:08.347Z,40.16
2023-01-15T13:12:36.660Z,41.46
2023-01-15T13:15:06.139Z,41.28
2023-01-15T13:17:44.669Z,41.20
2023-01-15T13:20:35.339Z,40.23
2023-01-15T13:23:10.239Z,40.48
2023-01-15T13:26:03.886Z,40.57
2023-01-15T13:28:42.845Z,40.94
2023-01-15T13:31:32.814Z,40.15
2023-01-15T13:34:04.858Z,40.77
2023-01-15T13:36:40.739Z,40.69
2023-01-15T13:39:16.899Z,40.38
2023-01-15T13:42:07.414Z,40.32
2023-01-15T13:44:42.841Z,40.32
2023-01-15T13:47:14.345Z,40.84
2023-01-15T13:49:49.785Z,40.40
2023-01-15T13:52:26.261Z,40.28
2023-01-15T13:54:59.540Z,40.92
2023-01-15T13:57:35.792Z,40.23
2023-01-15T14:00:33.833Z,40.37
2023-01-15T14:03:03.914Z,41.11
2023-01-15T14:05:33.747Z,40.65
2023-01-15T14:08:03.070Z,41.17
2023-01-15T14:10:38.626Z,39.75
2023-01-15T14:13:28.094Z,40.19
2023-01-15T14:16:09.714Z,40.36
2023-01-15T14:19:18.245Z,40.16
2023-01-15T14:21:55.029Z,40.36
2023-01-15T14:24:50.868Z,40.09
2023-01-15T14:27:45.883Z,40.48
2023-01-15T14:30:32.425Z,39.91
2023-01-15T14:33:12.606Z,40.34
2023-01-15T14:35:46.720Z,40.27
2023-01-15T14:38:18.956Z,40.51
2023-01-15T14:40:59.543Z,39.81
2023-01-15T14:43:29.133Z,40.70
2023-01-15T14:49:29.940Z,40.03
2023-01-15T14:51:59.753Z,40.71
2023-01-15T14:54:28.628Z,40.70
2023-01-15T14:57:04.423Z,40.67
2023-01-15T14:59:44.023Z,39.98
2023-01-15T15:02:22.561Z,40.08
2023-01-15T15:04:56.125Z,40.81
2023-01-15T15:07:29.632Z,40.83
2023-01-15T15:10:03.142Z,40.58
2023-01-15T15:12:36.444Z,41.08
2023-01-15T15:15:13.486Z,40.61
2023-01-15T15:17:50.715Z,40.80
2023-01-15T15:20:29.342Z,40.42
2023-01-15T15:23:04.892Z,40.91
2023-01-15T15:25:38.174Z,40.61
2023-01-15T15:28:11.318Z,40.73
2023-01-15T15:30:44.904Z,40.57
2023-01-15T15:33:19.258Z,40.22
2023-01-15T15:35:50.427Z,40.78
2023-01-15T15:38:20.341Z,40.94
2023-01-15T15:40:53.114Z,40.41
2023-01-15T15:43:43.815Z,40.21
2023-01-15T15:46:42.144Z,39.96
2023-01-15T15:49:11.351Z,40.90
2023-01-15T15:51:41.333Z,40.91
2023-01-15T15:54:16.540Z,40.59
2023-01-15T15:56:48.534Z,40.78
2023-01-15T15:59:29.422Z,40.39
2023-01-15T16:02:17.701Z,40.66
2023-01-15T16:04:51.015Z,40.81
2023-01-15T16:07:25.310Z,40.52
2023-01-15T16:09:55.776Z,40.86
2023-01-15T16:12:24.656Z,40.70
2023-01-15T16:14:53.654Z,40.80
2023-01-15T16:17:28.370Z,41.20
2023-01-15T16:19:58.582Z,40.74
2023-01-15T16:22:26.524Z,40.90
2023-01-15T16:24:56.976Z,40.95
2023-01-15T16:27:28.477Z,40.90
2023-01-15T16:29:56.399Z,41.05
2023-01-15T16:32:28.870Z,41.11
2023-01-15T16:35:07.360Z,40.72
2023-01-15T16:37:35.956Z,41.18
2023-01-15T16:40:06.229Z,41.33
2023-01-15T16:42:37.219Z,41.22
2023-01-15T16:45:19.007Z,41.32
2023-01-15T16:48:02.856Z,40.55
2023-01-15T16:50:33.825Z,41.03
2023-01-15T16:53:03.142Z,41.15
2023-01-15T16:55:42.999Z,40.34
2023-01-15T16:58:22.766Z,40.54
2023-01-15T17:00:53.444Z,41.11
2023-01-15T17:03:24.608Z,41.02
2023-01-15T17:05:57.290Z,41.04
2023-01-15T17:08:33.006Z,40.69
2023-01-15T17:11:03.374Z,41.07
2023-01-15T17:13:36.553Z,40.94
2023-01-15T17:16:07.999Z,40.82
2023-01-15T17:18:36.336Z,41.03
2023-01-15T17:21:07.098Z,40.98
2023-01-15T17:23:37.497Z,40.92
2023-01-15T17:26:06.768Z,41.26
2023-01-15T17:28:35.308Z,41.28
2023-01-15T17:31:04.159Z,41.07
2023-01-15T17:33:31.970Z,41.42
2023-01-15T17:36:01.244Z,41.07
2023-01-15T17:38:30.458Z,41.09
2023-01-15T17:41:00.697Z,41.47
2023-01-15T17:43:28.469Z,41.28
2023-01-15T17:45:56.306Z,41.26
2023-01-15T17:48:24.089Z,41.73
2023-01-15T17:50:51.941Z,41.78
2023-01-15T17:53:19.716Z,41.54
2023-01-15T17:56:06.174Z,41.51
2023-01-15T17:58:51.445Z,41.55
2023-01-15T18:01:47.518Z,41.89
2023-01-15T18:04:37.154Z,41.69
2023-01-15T18:07:05.954Z,41.71
2023-01-15T18:09:35.961Z,41.88
2023-01-15T18:12:06.172Z,41.68
2023-01-15T18:14:33.953Z,41.92
2023-01-15T18:17:02.553Z,41.72
2023-01-15T18:19:30.727Z,41.76
2023-01-15T18:21:58.640Z,42.14
2023-01-15T18:24:26.476Z,41.86
2023-01-15T18:26:55.464Z,41.92
2023-01-15T18:29:24.803Z,42.05
2023-01-15T18:31:52.589Z,42.09
2023-01-15T18:34:20.392Z,42.14
2023-01-15T18:36:48.382Z,42.43
2023-01-15T18:39:16.298Z,42.39
2023-01-15T18:42:01.657Z,42.31
2023-01-15T18:44:48.381Z,42.21
2023-01-15T18:47:17.613Z,42.37
2023-01-15T18:49:46.893Z,42.37
2023-01-15T18:52:34.734Z,42.33
2023-01-15T18:55:02.749Z,42.14
2023-01-15T18:57:33.950Z,42.40
2023-01-15T19:00:05.830Z,42.51
2023-01-15T19:02:33.744Z,42.37
2023-01-15T19:05:03.333Z,42.32
2023-01-15T19:07:31.661Z,42.66
2023-01-15T19:09:59.696Z,42.38
2023-01-15T19:12:27.701Z,42.30
2023-01-15T19:15:12.954Z,42.62
2023-01-15T19:18:10.941Z,42.16
2023-01-15T19:20:42.363Z,42.59
2023-01-15T19:23:21.795Z,42.58
2023-01-15T19:25:50.184Z,42.45
2023-01-15T19:28:20.914Z,42.33
2023-01-15T19:31:12.508Z,42.38
2023-01-15T19:33:41.731Z,42.59
2023-01-15T19:36:10.119Z,42.93
2023-01-15T19:38:39.194Z,42.61
2023-01-15T19:41:28.344Z,42.53
2023-01-15T19:44:14.003Z,42.78
2023-01-15T19:46:59.604Z,42.31
2023-01-15T19:49:51.630Z,42.04
2023-01-15T19:52:38.681Z,42.28
2023-01-15T19:55:10.753Z,42.19
2023-01-15T19:57:38.908Z,42.44
2023-01-15T20:00:33.139Z,41.90
2023-01-15T20:03:02.234Z,42.05
2023-01-15T20:05:33.075Z,41.94
2023-01-15T20:08:01.130Z,41.93
2023-01-15T20:10:31.762Z,42.04
2023-01-15T20:13:17.409Z,41.77
2023-01-15T20:15:46.580Z,41.72
2023-01-15T20:18:14.759Z,42.15
2023-01-15T20:20:44.435Z,41.62
2023-01-15T20:23:12.287Z,41.76
2023-01-15T20:25:41.457Z,41.69
2023-01-15T20:28:09.267Z,41.68
2023-01-15T20:30:37.044Z,41.53
2023-01-15T20:33:04.997Z,41.71
2023-01-15T20:35:33.489Z,41.58
2023-01-15T20:38:02.704Z,41.53
2023-01-15T20:40:30.672Z,41.61
2023-01-15T20:43:15.924Z,41.66
2023-01-15T20:45:43.810Z,41.58
2023-01-15T20:48:29.285Z,41.70
2023-01-15T20:51:05.980Z,41.93
2023-01-15T20:53:35.663Z,41.55
2023-01-15T20:56:05.051Z,41.83
2023-01-15T20:58:33.004Z,41.69
2023-01-15T21:01:07.114Z,41.58
2023-01-15T21:03:39.600Z,41.70
2023-01-15T21:06:08.575Z,41.97
2023-01-15T21:08:39.715Z,41.44
2023-01-15T21:11:07.898Z,41.87
2023-01-15T21:13:36.716Z,41.76
2023-01-15T21:16:07.366Z,41.68
2023-01-15T21:18:37.266Z,42.05
2023-01-15T21:21:09.966Z,42.09
2023-01-15T21:23:40.255Z,42.00
2023-01-15T21:26:08.324Z,42.13
2023-01-15T21:28:36.418Z,42.22
2023-01-15T21:31:07.790Z,42.48
2023-01-15T21:33:35.975Z,42.38
2023-01-15T21:36:07.427Z,42.97
2023-01-15T21:38:35.360Z,42.67
2023-01-15T21:41:09.966Z,42.78
2023-01-15T21:43:55.229Z,42.71
2023-01-15T21:46:27.106Z,42.91
2023-01-15T21:48:54.984Z,43.10
2023-01-15T21:51:22.966Z,42.88
2023-01-15T21:53:50.814Z,43.38
2023-01-15T21:56:19.985Z,43.71
2023-01-15T21:58:47.851Z,43.77
2023-01-15T22:01:18.126Z,43.85
2023-01-15T22:03:46.200Z,43.85
2023-01-15T22:06:15.250Z,44.11
2023-01-15T22:08:43.333Z,43.90
2023-01-15T22:11:11.831Z,43.99
2023-01-15T22:13:41.668Z,43.88
2023-01-15T22:16:09.883Z,43.72
2023-01-15T22:18:37.856Z,43.98
2023-01-15T22:21:08.529Z,43.74
2023-01-15T22:23:36.424Z,43.73
2023-01-15T22:26:04.308Z,43.95
2023-01-15T22:28:33.744Z,44.13
2023-01-15T22:31:07.936Z,44.50
2023-01-15T22:33:35.969Z,44.10
2023-01-15T22:36:04.424Z,44.25
2023-01-15T22:38:32.367Z,44.14
2023-01-15T22:41:00.894Z,44.09
2023-01-15T22:43:30.461Z,44.22
2023-01-15T22:46:10.556Z,44.04
2023-01-15T22:48:48.289Z,44.26
2023-01-15T22:51:16.661Z,44.49
2023-01-15T22:53:44.559Z,44.25
2023-01-15T22:56:12.973Z,44.09
2023-01-15T22:58:42.655Z,44.01
2023-01-15T23:01:10.962Z,44.11
2023-01-15T23:03:39.637Z,44.31
2023-01-15T23:06:12.092Z,44.45
2023-01-15T23:08:40.463Z,44.32
2023-01-15T23:11:11.335Z,44.31
2023-01-15T23:13:39.766Z,44.45
2023-01-15T23:16:07.738Z,44.32
2023-01-15T23:18:36.094Z,44.29
2023-01-15T23:21:05.404Z,44.32
2023-01-15T23:23:34.883Z,44.21
2023-01-15T23:26:03.133Z,44.06
2023-01-15T23:28:31.227Z,44.05
2023-01-15T23:30:59.141Z,43.95
2023-01-15T23:33:27.203Z,44.10
2023-01-15T23:35:55.414Z,43.76
2023-01-15T23:38:23.354Z,43.87
2023-01-15T23:40:52.566Z,43.99
2023-01-15T23:43:38.357Z,43.82
2023-01-15T23:46:37.080Z,43.96
2023-01-15T23:49:07.288Z,44.25
2023-01-15T23:51:35.684Z,43.83
2023-01-15T23:54:04.290Z,44.15
2023-01-15T23:56:34.282Z,43.97
2023-01-15T23:59:01.960Z,44.05
